Time;durP1;ratioP1;P1;durP2;ratioP2;P2;SDS_P1;SDS_P2;PMS_P1;PMS_P2;Temp;Humidity;BMP_temperature;BMP_pressure;BME280_temperature;BME280_humidity;BME280_pressure;Samples;Min_cycle;Max_cycle;Signal;HPM_P1;HPM_P2
2023/03/17 00:01:53;;;;;;;;;;;;;;;3.86;69.65;100796.10;108096;1254;74049;-66
2023/03/17 00:04:23;;;;;;;;;;;;;;;4.12;69.08;100790.70;108106;1254;73409;-65
2023/03/17 00:06:51;;;;;;;;;;;;;;;3.92;69.49;100793.52;108094;1254;73714;-66
2023/03/17 00:09:21;;;;;;;;;;;;;;;3.99;69.57;100792.04;108100;1254;60068;-65
2023/03/17 00:11:50;;;;;;;;;;;;;;;4.19;68.94;100792.99;108120;1259;61225;-66
2023/03/17 00:14:22;;;;;;;;;;;;;;;4.21;68.78;100790.27;108090;1254;75747;-65
2023/03/17 00:16:50;;;;;;;;;;;;;;;4.14;68.71;100796.51;108048;1258;72152;-65
2023/03/17 00:19:31;;;;;;;;;;;;;;;3.86;69.26;100801.88;108096;1254;71746;-65
2023/03/17 00:22:00;;;;;;;;;;;;;;;3.80;69.41;100798.55;108058;1257;61134;-66
2023/03/17 00:24:29;;;;;;;;;;;;;;;3.77;69.56;100800.51;108042;1254;61137;-66
2023/03/17 00:27:01;;;;;;;;;;;;;;;3.76;69.56;100804.48;108101;1257;74626;-67
2023/03/17 00:29:29;;;;;;;;;;;;;;;3.97;69.13;100807.17;108144;1254;72162;-64
2023/03/17 00:31:57;;;;;;;;;;;;;;;4.10;68.67;100799.20;108075;1254;72066;-65
2023/03/17 00:34:30;;;;;;;;;;;;;;;4.14;68.36;100808.66;107955;1254;62431;-65
2023/03/17 00:36:59;;;;;;;;;;;;;;;4.13;68.06;100812.38;108107;1254;61154;-65
2023/03/17 00:39:29;;;;;;;;;;;;;;;4.08;68.10;100818.89;108095;1260;74841;-65
2023/03/17 00:41:58;;;;;;;;;;;;;;;4.10;68.02;100822.63;108129;1255;73966;-66
2023/03/17 00:44:27;;;;;;;;;;;;;;;4.06;67.94;100814.22;107942;1260;72755;-67
2023/03/17 00:46:57;;;;;;;;;;;;;;;4.12;67.82;100812.38;108102;1253;61210;-65
2023/03/17 00:49:28;;;;;;;;;;;;;;;4.14;67.62;100810.67;108161;1254;61241;-65
2023/03/17 00:51:56;;;;;;;;;;;;;;;4.13;67.69;100818.88;108074;1254;75678;-66
2023/03/17 00:54:25;;;;;;;;;;;;;;;4.15;67.50;100813.75;108069;1257;70904;-66
2023/03/17 00:56:53;;;;;;;;;;;;;;;4.15;67.37;100812.30;108127;1258;70609;-67
2023/03/17 00:59:26;;;;;;;;;;;;;;;4.14;67.29;100815.58;108108;1259;61278;-66
2023/03/17 01:01:55;;;;;;;;;;;;;;;4.14;67.06;100820.38;108089;1254;61401;-65
2023/03/17 01:04:24;;;;;;;;;;;;;;;4.14;66.97;100817.13;108134;1254;74610;-66
2023/03/17 01:06:53;;;;;;;;;;;;;;;4.15;66.87;100819.34;108077;1259;72552;-65
2023/03/17 01:09:23;;;;;;;;;;;;;;;4.15;66.56;100820.55;108035;1254;73931;-63
2023/03/17 01:11:51;;;;;;;;;;;;;;;4.15;66.55;100817.38;108072;1254;61227;-64
2023/03/17 01:14:20;;;;;;;;;;;;;;;4.15;66.32;100812.86;108143;1254;61196;-65
2023/03/17 01:16:49;;;;;;;;;;;;;;;4.13;66.33;100817.13;108098;1256;73872;-65
2023/03/17 01:19:21;;;;;;;;;;;;;;;4.11;66.23;100820.27;108073;1254;74093;-66
2023/03/17 01:21:49;;;;;;;;;;;;;;;4.11;66.01;100812.45;108150;1254;72607;-66
2023/03/17 01:24:18;;;;;;;;;;;;;;;4.10;66.00;100821.52;108045;1254;61246;-64
2023/03/17 01:26:46;;;;;;;;;;;;;;;4.09;65.89;100821.46;108141;1254;61275;-66
2023/03/17 01:29:16;;;;;;;;;;;;;;;4.08;65.83;100819.38;108182;1254;73716;-65
2023/03/17 01:31:46;;;;;;;;;;;;;;;4.08;65.62;100813.49;108186;1259;70376;-66
2023/03/17 01:34:20;;;;;;;;;;;;;;;4.07;65.62;100820.92;108170;1261;73982;-65
2023/03/17 01:36:49;;;;;;;;;;;;;;;4.09;65.73;100820.20;108004;1254;62223;-65
2023/03/17 01:39:18;;;;;;;;;;;;;;;4.09;65.67;100821.02;108127;1254;61586;-67
2023/03/17 01:42:06;;;;;;;;;;;;;;;4.09;65.56;100819.30;108012;1254;76617;-64
2023/03/17 01:44:35;;;;;;;;;;;;;;;4.08;65.57;100818.89;108129;1255;73270;-64
2023/03/17 01:47:04;;;;;;;;;;;;;;;4.08;65.48;100817.52;108072;1254;71749;-65
2023/03/17 01:49:34;;;;;;;;;;;;;;;4.08;65.50;100822.73;107932;1254;61086;-65
2023/03/17 01:52:03;;;;;;;;;;;;;;;4.09;65.45;100832.04;108111;1254;61183;-65
2023/03/17 01:54:42;;;;;;;;;;;;;;;4.11;65.33;100832.42;108109;1255;74800;-65
2023/03/17 01:57:12;;;;;;;;;;;;;;;4.09;65.31;100832.56;108091;1254;73673;-65
2023/03/17 01:59:51;;;;;;;;;;;;;;;4.10;65.37;100838.37;107937;1260;72524;-66
2023/03/17 02:02:25;;;;;;;;;;;;;;;4.11;65.47;100843.13;108097;1260;61144;-66
2023/03/17 02:04:54;;;;;;;;;;;;;;;4.10;65.24;100845.36;108070;1254;61087;-64
2023/03/17 02:07:23;;;;;;;;;;;;;;;4.09;65.25;100844.64;108129;1254;75666;-65
2023/03/17 02:09:52;;;;;;;;;;;;;;;4.10;65.27;100847.80;108187;1254;72109;-65
2023/03/17 02:12:21;;;;;;;;;;;;;;;4.12;65.30;100850.98;108029;1254;72406;-65
2023/03/17 02:14:50;;;;;;;;;;;;;;;4.12;65.17;100858.34;108019;1254;61253;-66
2023/03/17 02:17:23;;;;;;;;;;;;;;;4.13;65.16;100857.56;108103;1257;61136;-63
2023/03/17 02:19:51;;;;;;;;;;;;;;;4.13;65.17;100863.29;108064;1259;75339;-65
2023/03/17 02:22:23;;;;;;;;;;;;;;;4.14;65.24;100864.75;108104;1254;73963;-65
2023/03/17 02:24:56;;;;;;;;;;;;;;;4.15;65.18;100866.17;107967;1254;72581;-66
2023/03/17 02:27:29;;;;;;;;;;;;;;;4.16;65.13;100872.65;107982;1254;61821;-64
2023/03/17 02:30:00;;;;;;;;;;;;;;;4.13;65.10;100869.64;108059;1254;61315;-65
2023/03/17 02:32:29;;;;;;;;;;;;;;;4.13;65.15;100878.34;108080;1254;74993;-65
2023/03/17 02:34:58;;;;;;;;;;;;;;;4.11;64.96;100873.66;108100;1254;73025;-65
2023/03/17 02:37:26;;;;;;;;;;;;;;;4.12;65.09;100876.84;108027;1254;73355;-65
2023/03/17 02:39:54;;;;;;;;;;;;;;;4.12;65.10;100874.69;108008;1254;62498;-64
2023/03/17 02:42:24;;;;;;;;;;;;;;;4.12;65.33;100877.45;108049;1254;61491;-65
2023/03/17 02:44:52;;;;;;;;;;;;;;;4.10;65.09;100878.50;108063;1254;74553;-65
2023/03/17 02:47:21;;;;;;;;;;;;;;;4.11;65.18;100879.85;108032;1254;71805;-65
2023/03/17 02:49:50;;;;;;;;;;;;;;;4.13;65.21;100884.28;108023;1259;71763;-65
2023/03/17 02:52:18;;;;;;;;;;;;;;;4.15;65.30;100884.77;108009;1254;61807;-65
2023/03/17 02:54:47;;;;;;;;;;;;;;;4.15;65.27;100884.93;108540;1254;59717;-66
2023/03/17 02:57:16;;;;;;;;;;;;;;;4.15;65.29;100881.27;108059;1254;74193;-65
2023/03/17 02:59:44;;;;;;;;;;;;;;;4.15;65.32;100890.02;108115;1253;73600;-64
2023/03/17 03:02:15;;;;;;;;;;;;;;;4.14;65.28;100890.65;108112;1257;71880;-65
2023/03/17 03:04:45;;;;;;;;;;;;;;;4.14;65.26;100893.99;108058;1254;61079;-64
2023/03/17 03:07:13;;;;;;;;;;;;;;;4.12;65.26;100889.48;108015;1254;61132;-66
2023/03/17 03:09:53;;;;;;;;;;;;;;;4.11;65.28;100893.84;107998;1254;75055;-65
2023/03/17 03:12:32;;;;;;;;;;;;;;;4.11;65.39;100891.27;108020;1254;73840;-64
2023/03/17 03:15:13;;;;;;;;;;;;;;;4.08;65.36;100892.75;107927;1254;72650;-66
2023/03/17 03:17:44;;;;;;;;;;;;;;;4.06;65.34;100895.08;108188;1254;61177;-66
2023/03/17 03:20:31;;;;;;;;;;;;;;;4.06;65.60;100898.12;108039;1254;61206;-65
2023/03/17 03:23:04;;;;;;;;;;;;;;;4.06;65.55;100899.66;108063;1254;74893;-65
2023/03/17 03:25:46;;;;;;;;;;;;;;;4.07;65.53;100897.95;108088;1254;73565;-65
2023/03/17 03:28:18;;;;;;;;;;;;;;;4.07;65.57;100907.35;108120;1254;73794;-66
2023/03/17 03:30:47;;;;;;;;;;;;;;;4.06;65.51;100906.98;108146;1254;61097;-66
2023/03/17 03:33:37;;;;;;;;;;;;;;;4.06;65.51;100912.64;108193;1254;61209;-65
2023/03/17 03:36:21;;;;;;;;;;;;;;;4.04;65.36;100917.27;107976;1254;75748;-65
2023/03/17 03:39:01;;;;;;;;;;;;;;;4.02;65.49;100920.13;107991;1258;72190;-65
2023/03/17 03:41:57;;;;;;;;;;;;;;;4.01;65.45;100917.65;108131;1256;73528;-66
2023/03/17 03:44:47;;;;;;;;;;;;;;;4.02;65.63;100924.93;107840;1254;61713;-66
2023/03/17 03:47:17;;;;;;;;;;;;;;;4.03;65.53;100926.34;107981;1254;61111;-64
2023/03/17 03:49:52;;;;;;;;;;;;;;;4.04;65.56;100925.16;107972;1254;75267;-65
2023/03/17 03:52:21;;;;;;;;;;;;;;;4.05;65.64;100928.86;108086;1254;71763;-65
2023/03/17 03:54:49;;;;;;;;;;;;;;;4.06;65.63;100933.50;107991;1254;73425;-65
2023/03/17 03:57:18;;;;;;;;;;;;;;;4.06;65.46;100931.23;108069;1254;62149;-66
2023/03/17 03:59:46;;;;;;;;;;;;;;;4.07;65.50;100928.29;108076;1254;61078;-66
2023/03/17 04:02:15;;;;;;;;;;;;;;;4.08;65.49;100930.77;108119;1254;75047;-66
2023/03/17 04:04:44;;;;;;;;;;;;;;;4.11;65.46;100937.85;108041;1254;73152;-65
2023/03/17 04:07:16;;;;;;;;;;;;;;;4.12;65.54;100945.45;108045;1254;71930;-65
2023/03/17 04:09:45;;;;;;;;;;;;;;;4.09;65.26;100946.05;108048;1256;61415;-65
2023/03/17 04:12:13;;;;;;;;;;;;;;;4.07;65.37;100947.80;108098;1254;61083;-65
2023/03/17 04:14:45;;;;;;;;;;;;;;;4.05;65.42;100955.54;108090;1254;74722;-65
2023/03/17 04:17:14;;;;;;;;;;;;;;;4.03;65.33;100955.73;108091;1254;73988;-66
2023/03/17 04:19:42;;;;;;;;;;;;;;;4.00;65.51;100961.19;108106;1254;72134;-65
2023/03/17 04:22:12;;;;;;;;;;;;;;;4.02;65.56;100961.61;108147;1254;61119;-66
2023/03/17 04:24:41;;;;;;;;;;;;;;;4.02;65.71;100967.74;108071;1254;61257;-65
2023/03/17 04:27:09;;;;;;;;;;;;;;;4.03;65.70;100962.24;108134;1258;75039;-65
2023/03/17 04:29:38;;;;;;;;;;;;;;;4.04;65.73;100964.27;108048;1254;72971;-66
2023/03/17 04:32:07;;;;;;;;;;;;;;;4.05;65.82;100968.30;108088;1257;72861;-65
2023/03/17 04:34:35;;;;;;;;;;;;;;;4.06;65.67;100970.18;108057;1254;62403;-66
2023/03/17 04:37:03;;;;;;;;;;;;;;;4.08;65.71;100976.30;108097;1254;61208;-65
2023/03/17 04:39:32;;;;;;;;;;;;;;;3.84;66.16;100982.24;108055;1260;73467;-67
2023/03/17 04:42:00;;;;;;;;;;;;;;;3.76;66.61;100988.23;103999;1254;5243448;-65
2023/03/17 04:44:29;;;;;;;;;;;;;;;3.74;66.65;100985.20;108016;1254;73718;-65
2023/03/17 04:46:58;;;;;;;;;;;;;;;3.80;66.65;100993.50;108090;1254;61485;-65
2023/03/17 04:49:26;;;;;;;;;;;;;;;4.02;66.10;100989.41;108083;1254;61236;-65
2023/03/17 04:51:55;;;;;;;;;;;;;;;3.87;66.30;100998.75;108131;1254;75533;-65
2023/03/17 04:54:23;;;;;;;;;;;;;;;3.73;66.67;101002.64;108116;1254;72040;-65
2023/03/17 04:56:51;;;;;;;;;;;;;;;3.71;66.79;100995.02;108118;1258;72114;-66
2023/03/17 04:59:20;;;;;;;;;;;;;;;3.70;66.85;101002.87;108082;1254;61471;-66
2023/03/17 05:01:48;;;;;;;;;;;;;;;3.71;66.85;101009.30;108063;1254;61218;-65
2023/03/17 05:04:17;;;;;;;;;;;;;;;3.97;66.23;101002.25;108105;1257;74968;-66
2023/03/17 05:06:59;;;;;;;;;;;;;;;3.94;66.16;101006.31;108102;1254;72359;-66
2023/03/17 05:09:27;;;;;;;;;;;;;;;4.07;65.80;101007.06;108082;1254;71935;-68
2023/03/17 05:11:57;;;;;;;;;;;;;;;4.09;65.68;101009.42;108082;1254;61433;-65
2023/03/17 05:14:26;;;;;;;;;;;;;;;4.07;65.58;101009.51;108082;1254;61087;-66
2023/03/17 05:16:55;;;;;;;;;;;;;;;3.83;66.11;101016.42;108128;1254;74726;-66
2023/03/17 05:19:24;;;;;;;;;;;;;;;3.75;66.35;101015.40;108087;1254;71983;-68
2023/03/17 05:21:52;;;;;;;;;;;;;;;3.73;66.54;101021.73;108065;1257;72564;-66
2023/03/17 05:24:20;;;;;;;;;;;;;;;3.77;66.46;101021.54;108044;1254;61144;-65
2023/03/17 05:26:49;;;;;;;;;;;;;;;3.76;66.60;101019.77;108055;1254;61300;-65
2023/03/17 05:29:17;;;;;;;;;;;;;;;3.74;66.65;101023.96;108047;1254;75570;-65
2023/03/17 05:31:46;;;;;;;;;;;;;;;3.82;66.64;101027.41;108059;1254;73770;-65
2023/03/17 05:34:14;;;;;;;;;;;;;;;3.93;66.34;101031.80;108189;1254;71800;-65
2023/03/17 05:36:43;;;;;;;;;;;;;;;3.84;66.61;101032.85;108166;1254;61122;-65
2023/03/17 05:39:13;;;;;;;;;;;;;;;4.02;66.24;101027.11;108164;1254;61112;-67
2023/03/17 05:41:41;;;;;;;;;;;;;;;4.18;65.69;101030.50;108116;1257;75098;-65
2023/03/17 05:44:13;;;;;;;;;;;;;;;4.20;65.35;101030.01;108056;1255;72011;-67
2023/03/17 05:46:41;;;;;;;;;;;;;;;4.21;65.21;101030.95;108131;1254;71696;-66
2023/03/17 05:49:12;;;;;;;;;;;;;;;4.22;65.34;101035.66;108117;1254;61215;-66
2023/03/17 05:51:41;;;;;;;;;;;;;;;4.24;65.20;101036.84;108167;1254;61329;-67
2023/03/17 05:54:09;;;;;;;;;;;;;;;4.27;65.03;101038.95;108094;1254;76139;-66
2023/03/17 05:56:40;;;;;;;;;;;;;;;4.28;64.92;101041.77;108086;1254;73161;-66
2023/03/17 05:59:09;;;;;;;;;;;;;;;4.30;64.90;101040.02;107994;1254;71812;-65
2023/03/17 06:01:39;;;;;;;;;;;;;;;4.31;64.88;101045.79;108180;1254;61654;-64
2023/03/17 06:04:08;;;;;;;;;;;;;;;4.35;64.84;101048.84;108088;1257;61329;-64
2023/03/17 06:06:37;;;;;;;;;;;;;;;4.33;64.79;101054.30;108058;1254;75695;-64
2023/03/17 06:09:07;;;;;;;;;;;;;;;4.10;65.40;101055.09;108906;1253;72171;-66
2023/03/17 06:11:36;;;;;;;;;;;;;;;4.05;65.64;101058.02;108146;1254;72124;-64
2023/03/17 06:14:06;;;;;;;;;;;;;;;4.04;65.75;101057.11;108135;1254;62163;-65
2023/03/17 06:16:54;;;;;;;;;;;;;;;4.03;65.87;101054.80;108109;1254;62318;-64
2023/03/17 06:19:22;;;;;;;;;;;;;;;4.01;65.78;101062.61;108036;1254;72607;-65
2023/03/17 06:21:53;;;;;;;;;;;;;;;4.01;65.81;101058.26;108047;1258;73028;-65
2023/03/17 06:24:21;;;;;;;;;;;;;;;4.01;65.85;101061.80;108104;1254;72897;-65
2023/03/17 06:26:53;;;;;;;;;;;;;;;4.00;65.89;101066.38;108067;1254;61960;-65
2023/03/17 06:29:22;;;;;;;;;;;;;;;4.01;65.78;101069.48;108137;1254;61948;-65
2023/03/17 06:31:50;;;;;;;;;;;;;;;4.00;65.88;101064.48;108075;1254;75562;-64
2023/03/17 06:34:21;;;;;;;;;;;;;;;4.01;65.94;101068.05;108080;1254;73118;-66
2023/03/17 06:36:49;;;;;;;;;;;;;;;4.03;66.01;101064.37;108127;1253;72903;-65
2023/03/17 06:39:19;;;;;;;;;;;;;;;4.04;65.82;101068.88;108107;1254;62405;-66
2023/03/17 06:41:48;;;;;;;;;;;;;;;4.14;65.56;101067.33;108098;1254;61308;-65
2023/03/17 06:44:17;;;;;;;;;;;;;;;4.22;65.43;101071.82;108159;1254;74503;-66
2023/03/17 06:46:46;;;;;;;;;;;;;;;4.44;64.75;101068.21;108098;1254;73014;-65
2023/03/17 06:49:15;;;;;;;;;;;;;;;4.50;64.56;101068.95;108053;1254;72475;-66
2023/03/17 06:51:45;;;;;;;;;;;;;;;4.52;64.36;101070.70;108106;1254;62159;-67
2023/03/17 06:54:13;;;;;;;;;;;;;;;4.56;64.23;101074.06;108134;1254;61117;-66
2023/03/17 06:56:43;;;;;;;;;;;;;;;4.58;64.22;101074.52;108178;1254;74703;-66
2023/03/17 06:59:12;;;;;;;;;;;;;;;4.58;64.08;101077.61;108123;1254;73048;-66
2023/03/17 07:01:40;;;;;;;;;;;;;;;4.60;64.08;101077.92;108080;1254;72935;-65
2023/03/17 07:04:10;;;;;;;;;;;;;;;4.62;64.04;101080.29;108145;1254;61125;-66
2023/03/17 07:06:41;;;;;;;;;;;;;;;4.64;63.97;101077.85;108162;1254;59005;-65
2023/03/17 07:09:10;;;;;;;;;;;;;;;4.48;64.06;101085.87;108147;1254;74402;-68
2023/03/17 07:11:44;;;;;;;;;;;;;;;4.30;64.50;101086.44;108084;1254;74072;-65
2023/03/17 07:14:12;;;;;;;;;;;;;;;4.29;64.73;101087.54;108093;1254;72975;-65
2023/03/17 07:16:41;;;;;;;;;;;;;;;4.57;64.38;101092.91;108074;1254;61266;-64
2023/03/17 07:19:15;;;;;;;;;;;;;;;4.38;64.76;101090.02;108131;1254;61291;-65
2023/03/17 07:21:43;;;;;;;;;;;;;;;4.32;64.75;101094.33;108105;1254;75826;-65
2023/03/17 07:24:14;;;;;;;;;;;;;;;4.32;64.88;101101.89;108068;1254;73760;-65
2023/03/17 07:26:42;;;;;;;;;;;;;;;4.34;65.00;101098.64;108168;1254;72758;-66
2023/03/17 07:29:20;;;;;;;;;;;;;;;4.40;64.91;101100.98;108051;1254;61182;-65
2023/03/17 07:31:48;;;;;;;;;;;;;;;4.68;64.21;101101.58;108038;1254;61684;-65
2023/03/17 07:34:17;;;;;;;;;;;;;;;4.75;63.98;101109.52;108091;1254;72559;-65
2023/03/17 07:36:46;;;;;;;;;;;;;;;4.78;63.74;101112.09;108061;1253;74347;-65
2023/03/17 07:39:19;;;;;;;;;;;;;;;4.78;63.48;101109.72;95483;1256;10002778;-67
2023/03/17 07:41:53;;;;;;;;;;;;;;;4.80;63.64;101108.73;92815;1257;10002823;-66
2023/03/17 07:44:22;;;;;;;;;;;;;;;4.67;63.69;101106.63;108069;1256;61206;-66
2023/03/17 07:46:50;;;;;;;;;;;;;;;4.52;64.24;101108.25;107915;1256;61231;-65
2023/03/17 07:49:20;;;;;;;;;;;;;;;4.53;64.55;101112.13;107924;1257;74959;-67
2023/03/17 07:52:07;;;;;;;;;;;;;;;4.55;64.40;101113.52;107673;1259;72669;-67
2023/03/17 07:54:38;;;;;;;;;;;;;;;4.81;63.88;101114.36;107812;1259;71891;-67
2023/03/17 07:57:10;;;;;;;;;;;;;;;4.88;63.53;101115.05;107902;1256;62450;-65
2023/03/17 07:59:38;;;;;;;;;;;;;;;4.91;63.44;101118.59;107851;1256;61218;-67
2023/03/17 08:02:10;;;;;;;;;;;;;;;4.95;63.31;101122.98;107931;1256;74715;-66
2023/03/17 08:04:39;;;;;;;;;;;;;;;4.98;63.25;101118.45;107852;1257;72754;-66
2023/03/17 08:07:07;;;;;;;;;;;;;;;4.98;63.31;101121.54;107817;1256;72135;-67
2023/03/17 08:09:36;;;;;;;;;;;;;;;5.00;63.00;101122.38;107662;1257;62918;-67
2023/03/17 08:12:05;;;;;;;;;;;;;;;5.00;62.86;101124.48;107833;1252;61295;-66
2023/03/17 08:14:36;;;;;;;;;;;;;;;5.02;62.86;101122.64;108088;1258;73842;-66
2023/03/17 08:17:05;;;;;;;;;;;;;;;5.05;62.85;101125.68;108007;1254;72114;-65
2023/03/17 08:19:34;;;;;;;;;;;;;;;5.10;62.73;101125.07;108000;1254;72845;-66
2023/03/17 08:22:12;;;;;;;;;;;;;;;5.14;62.70;101132.02;107912;1254;61125;-65
2023/03/17 08:24:42;;;;;;;;;;;;;;;5.16;62.49;101124.93;107864;1254;61145;-67
2023/03/17 08:27:11;;;;;;;;;;;;;;;5.17;62.46;101126.93;108498;1254;75958;-66
2023/03/17 08:29:40;;;;;;;;;;;;;;;5.18;62.50;101135.81;108057;1257;72548;-67
2023/03/17 08:32:08;;;;;;;;;;;;;;;5.19;62.45;101131.25;107898;1254;71387;-66
2023/03/17 08:34:37;;;;;;;;;;;;;;;5.20;62.48;101130.43;107895;1254;61090;-66
2023/03/17 08:37:06;;;;;;;;;;;;;;;5.22;62.41;101134.86;107943;1254;61097;-66
2023/03/17 08:39:38;;;;;;;;;;;;;;;5.25;62.35;101132.95;107962;1254;74462;-66
2023/03/17 08:42:07;;;;;;;;;;;;;;;5.25;62.34;101140.11;107954;1258;73423;-67
2023/03/17 08:44:36;;;;;;;;;;;;;;;5.27;62.25;101141.50;107925;1254;73125;-67
2023/03/17 08:47:09;;;;;;;;;;;;;;;5.26;62.06;101138.27;107928;1254;61409;-67
2023/03/17 08:49:37;;;;;;;;;;;;;;;5.23;62.08;101139.31;107765;1256;61011;-67
2023/03/17 08:52:05;;;;;;;;;;;;;;;5.24;62.18;101144.56;107839;1254;75231;-67
2023/03/17 08:54:37;;;;;;;;;;;;;;;5.23;62.15;101144.48;107891;1254;72959;-67
2023/03/17 08:57:05;;;;;;;;;;;;;;;5.25;62.17;101147.41;107921;1254;73065;-66
2023/03/17 08:59:36;;;;;;;;;;;;;;;5.25;62.21;101147.89;107964;1254;61236;-68
2023/03/17 09:02:04;;;;;;;;;;;;;;;5.29;62.29;101150.94;108030;1254;61249;-67
2023/03/17 09:04:33;;;;;;;;;;;;;;;5.32;62.30;101147.10;107946;1258;75428;-67
2023/03/17 09:07:03;;;;;;;;;;;;;;;5.35;62.26;101150.65;107990;1254;73016;-67
2023/03/17 09:09:33;;;;;;;;;;;;;;;5.40;62.23;101146.07;107960;1254;72671;-67
2023/03/17 09:12:04;;;;;;;;;;;;;;;5.45;62.10;101148.05;107801;1254;61511;-66
2023/03/17 09:14:33;;;;;;;;;;;;;;;5.47;62.01;101148.77;107969;1254;61129;-67
2023/03/17 09:17:12;;;;;;;;;;;;;;;5.49;61.93;101150.19;108064;1258;74435;-65
2023/03/17 09:19:42;;;;;;;;;;;;;;;5.47;61.88;101159.95;108053;1259;72223;-65
2023/03/17 09:22:12;;;;;;;;;;;;;;;5.47;61.84;101154.73;107977;1257;73943;-66
2023/03/17 09:24:41;;;;;;;;;;;;;;;5.46;61.89;101148.58;108057;1254;62093;-66
2023/03/17 09:27:12;;;;;;;;;;;;;;;5.45;61.85;101154.81;108113;1254;61145;-66
2023/03/17 09:29:41;;;;;;;;;;;;;;;5.45;61.93;101157.02;108038;1254;74941;-66
2023/03/17 09:32:10;;;;;;;;;;;;;;;5.48;61.88;101162.47;108036;1254;73759;-66
2023/03/17 09:34:39;;;;;;;;;;;;;;;5.48;61.82;101161.20;108115;1254;74769;-65
2023/03/17 09:37:08;;;;;;;;;;;;;;;5.47;61.70;101167.62;108089;1254;62154;-67
2023/03/17 09:39:37;;;;;;;;;;;;;;;5.46;61.82;101172.08;108037;1254;61301;-66
2023/03/17 09:42:23;;;;;;;;;;;;;;;5.48;61.86;101176.70;108125;1254;73824;-66
2023/03/17 09:44:52;;;;;;;;;;;;;;;5.47;61.68;101176.95;108030;1254;73495;-66
2023/03/17 09:47:33;;;;;;;;;;;;;;;5.48;61.69;101176.05;108034;1254;72242;-67
2023/03/17 09:50:25;;;;;;;;;;;;;;;5.48;61.74;101178.05;108088;1254;61142;-67
2023/03/17 09:52:55;;;;;;;;;;;;;;;5.50;61.71;101180.08;107997;1255;61099;-67
2023/03/17 09:55:27;;;;;;;;;;;;;;;5.51;61.74;101179.10;108081;1254;74181;-67
2023/03/17 09:57:56;;;;;;;;;;;;;;;5.52;61.72;101178.60;108051;1254;72018;-67
2023/03/17 10:00:26;;;;;;;;;;;;;;;5.53;61.63;101182.44;108153;1254;72106;-65
2023/03/17 10:02:55;;;;;;;;;;;;;;;5.53;61.48;101183.35;108141;1254;61905;-67
2023/03/17 10:05:25;;;;;;;;;;;;;;;5.53;61.56;101185.09;108071;1254;61332;-63
2023/03/17 10:08:03;;;;;;;;;;;;;;;5.53;61.55;101182.33;108127;1257;74866;-65
2023/03/17 10:10:38;;;;;;;;;;;;;;;5.52;61.63;101179.58;108061;1254;73767;-65
2023/03/17 10:13:26;;;;;;;;;;;;;;;5.52;61.74;101186.06;108146;1254;72135;-65
2023/03/17 10:16:02;;;;;;;;;;;;;;;5.55;61.66;101188.66;108050;1254;61262;-65
2023/03/17 10:18:32;;;;;;;;;;;;;;;5.58;61.74;101196.44;108084;1254;61118;-65
2023/03/17 10:21:05;;;;;;;;;;;;;;;5.60;61.69;101190.09;108255;1257;74960;-66
2023/03/17 10:23:38;;;;;;;;;;;;;;;5.62;61.55;101187.38;108018;1254;72762;-64
2023/03/17 10:26:11;;;;;;;;;;;;;;;5.64;61.50;101187.54;107957;1254;73714;-66
2023/03/17 10:28:41;;;;;;;;;;;;;;;5.64;61.37;101186.48;108032;1254;61836;-64
2023/03/17 10:31:14;;;;;;;;;;;;;;;5.63;61.50;101188.07;108111;1254;61073;-65
2023/03/17 10:33:51;;;;;;;;;;;;;;;5.64;61.42;101183.02;108072;1254;73689;-65
2023/03/17 10:36:41;;;;;;;;;;;;;;;5.64;61.31;101181.91;108049;1254;72466;-65
2023/03/17 10:39:13;;;;;;;;;;;;;;;5.65;61.43;101180.80;108099;1254;74840;-65
2023/03/17 10:41:47;;;;;;;;;;;;;;;5.69;61.28;101184.30;108063;1254;61105;-67
2023/03/17 10:44:33;;;;;;;;;;;;;;;5.71;61.25;101191.88;108025;1254;61116;-67
2023/03/17 10:47:01;;;;;;;;;;;;;;;5.73;61.35;101190.89;108106;1254;73931;-67
2023/03/17 10:49:36;;;;;;;;;;;;;;;5.75;61.26;101194.52;108089;1256;73020;-66
2023/03/17 10:52:13;;;;;;;;;;;;;;;5.77;61.18;101188.07;108012;1254;74062;-64
2023/03/17 10:54:42;;;;;;;;;;;;;;;5.79;61.22;101198.91;108053;1254;61845;-65
2023/03/17 10:57:12;;;;;;;;;;;;;;;5.80;61.01;101199.48;108137;1254;61348;-64
2023/03/17 10:59:42;;;;;;;;;;;;;;;5.79;60.97;101198.34;108114;1254;74815;-67
2023/03/17 11:02:17;;;;;;;;;;;;;;;5.76;61.01;101195.81;108150;1254;73428;-67
2023/03/17 11:04:52;;;;;;;;;;;;;;;5.75;61.11;101204.02;108088;1254;72042;-66
2023/03/17 11:07:32;;;;;;;;;;;;;;;5.76;61.23;101200.55;108072;1254;61802;-66
2023/03/17 11:10:01;;;;;;;;;;;;;;;5.78;61.19;101202.38;108070;1254;61136;-66
2023/03/17 11:12:38;;;;;;;;;;;;;;;5.77;61.24;101202.98;108120;1254;74876;-65
2023/03/17 11:15:09;;;;;;;;;;;;;;;5.78;61.18;101202.73;108097;1258;71057;-65
2023/03/17 11:17:44;;;;;;;;;;;;;;;5.78;61.29;101210.77;108103;1257;72764;-66
2023/03/17 11:20:32;;;;;;;;;;;;;;;5.79;61.23;101207.11;108084;1254;61806;-66
2023/03/17 11:23:03;;;;;;;;;;;;;;;5.82;61.24;101203.27;108141;1258;61254;-66
2023/03/17 11:25:33;;;;;;;;;;;;;;;5.84;61.15;101203.50;108151;1254;74586;-66
2023/03/17 11:28:02;;;;;;;;;;;;;;;5.84;61.10;101211.23;108155;1254;73497;-66
2023/03/17 11:30:34;;;;;;;;;;;;;;;5.83;61.17;101207.51;108176;1254;72618;-67
2023/03/17 11:33:09;;;;;;;;;;;;;;;5.85;61.22;101212.17;108156;1254;61074;-65
2023/03/17 11:35:53;;;;;;;;;;;;;;;5.86;61.14;101210.30;108178;1254;61145;-65
2023/03/17 11:38:23;;;;;;;;;;;;;;;5.86;61.11;101211.86;108116;1257;73711;-64
2023/03/17 11:41:10;;;;;;;;;;;;;;;5.87;61.08;101208.98;108109;1254;72780;-65
2023/03/17 11:43:58;;;;;;;;;;;;;;;5.86;61.03;101202.48;108153;1254;72706;-66
2023/03/17 11:46:27;;;;;;;;;;;;;;;5.87;61.10;101208.02;108075;1254;61272;-67
2023/03/17 11:48:59;;;;;;;;;;;;;;;5.88;61.10;101202.86;108162;1254;61116;-66
2023/03/17 11:51:44;;;;;;;;;;;;;;;5.89;61.03;101210.46;108141;1254;75734;-66
2023/03/17 11:54:12;;;;;;;;;;;;;;;5.88;60.98;101209.32;108198;1254;72721;-67
2023/03/17 11:56:49;;;;;;;;;;;;;;;5.88;61.09;101216.41;108148;1254;72382;-67
2023/03/17 11:59:35;;;;;;;;;;;;;;;5.91;61.13;101216.02;108194;1254;61847;-66
2023/03/17 12:02:16;;;;;;;;;;;;;;;5.96;61.09;101218.55;108178;1254;61218;-67
2023/03/17 12:05:04;;;;;;;;;;;;;;;5.99;61.03;101225.21;108148;1258;74941;-66
2023/03/17 12:07:43;;;;;;;;;;;;;;;5.99;60.87;101220.68;108177;1254;70788;-67
2023/03/17 12:10:33;;;;;;;;;;;;;;;5.97;60.87;101225.01;108098;1254;71814;-67
2023/03/17 12:13:14;;;;;;;;;;;;;;;5.99;60.90;101230.88;108095;1256;61275;-65
2023/03/17 12:15:46;;;;;;;;;;;;;;;6.01;60.86;101225.74;108095;1254;61224;-66
2023/03/17 12:18:18;;;;;;;;;;;;;;;6.05;61.02;101224.90;108181;1254;74170;-65
2023/03/17 12:20:48;;;;;;;;;;;;;;;6.09;61.04;101227.92;108159;1254;72018;-66
2023/03/17 12:23:37;;;;;;;;;;;;;;;6.09;61.00;101231.63;108137;1254;73699;-67
2023/03/17 12:26:08;;;;;;;;;;;;;;;6.10;60.92;101230.45;108184;1254;61413;-67
2023/03/17 12:28:46;;;;;;;;;;;;;;;6.08;60.76;101229.75;108101;1254;61109;-65
2023/03/17 12:31:21;;;;;;;;;;;;;;;6.06;60.80;101235.30;108163;1257;73845;-66
2023/03/17 12:33:56;;;;;;;;;;;;;;;6.07;60.97;101236.73;108077;1254;72177;-66
2023/03/17 12:36:25;;;;;;;;;;;;;;;6.10;61.01;101237.25;108123;1254;73754;-66
2023/03/17 12:39:04;;;;;;;;;;;;;;;6.09;61.02;101243.02;108044;1254;62089;-66
2023/03/17 12:41:48;;;;;;;;;;;;;;;6.09;61.06;101248.46;108112;1254;61310;-66
2023/03/17 12:44:30;;;;;;;;;;;;;;;6.08;61.15;101251.25;108140;1254;74892;-65
2023/03/17 12:47:23;;;;;;;;;;;;;;;6.05;61.05;101258.27;108194;1254;73230;-66
2023/03/17 12:49:55;;;;;;;;;;;;;;;6.04;61.14;101264.28;108114;1257;73590;-66
2023/03/17 12:52:36;;;;;;;;;;;;;;;6.03;61.18;101266.13;108087;1254;61135;-67
2023/03/17 12:55:08;;;;;;;;;;;;;;;6.03;61.16;101265.07;108152;1254;61330;-65
2023/03/17 12:57:41;;;;;;;;;;;;;;;6.01;61.15;101262.58;107986;1254;74646;-65
2023/03/17 13:00:19;;;;;;;;;;;;;;;6.00;61.29;101267.27;108111;1254;74011;-65